arxmliv
arxmliv build tool
 
KWARC group
LaTeXML
About
   
 

Detailed info

Back to Homepage

List of missing_macros

No. Date Filename num_warningnum_errornum_xmargok_xmargnum_xmathok_xmathMissing macros
4201 2013-04-15 11:23:32 /1204/1204.5832 280000[{keyword}, \corauth, \thanksref, \address, \sep, \PACS, {frontmatter}, \corauthref]; 1 missing file[ctextemp_elsart.cls].
4202 2013-04-15 11:23:32 /1204/1204.5821 0120000[\pacs, \doi, \makeukrtitle, \keywords, \refaddr, \authorcopyright, \issue, \doinumber, \addresses, \ukrainianpart, \addr]; 1 missing file[cmpj2.sty].
4203 2013-04-15 11:23:16 /1204/1204.5824 2120000[\pacs, \doi, \makeukrtitle, \keywords, \refaddr, \authorcopyright, \issue, \doinumber, \addresses, \ukrainianpart, \addr]; 1 missing file[cmpj2.sty].
4204 2013-04-15 11:23:14 /1204/1204.5826 0120000[\pacs, \doi, \re, \rd, \makeukrtitle, \keywords, \authorcopyright, \issue, \doinumber, \address, \ukrainianpart]; 1 missing file[cmpj2.sty].
4205 2013-04-15 11:23:11 /1204/1204.5825 0130000[\pacs, \doi, \re, \makeukrtitle, \keywords, \authorcopyright, \issue, \doinumber, \address, \ri, \ukrainianpart]; 1 missing file[cmpj2.sty].
4206 2013-04-15 11:23:10 /1204/1204.5798 540000[\addeditor, \subfloat]; 2 missing files[draftwatermark.sty, trackchanges.sty].
4207 2013-04-15 11:23:02 /1204/1204.5803 2050000[Align, \xymatrix, \ar]; 2 missing files[ot2.fontmap, xy.sty].
4208 2013-04-15 11:22:56 /1204/1204.5802 172250000[\Lbag, Align, \xyoption, \Rbag, \xymatrix, \ar, \bigsqcap]; 2 missing files[xy.sty, cmll.sty].
4209 2013-04-15 11:22:41 /1204/1204.5789 1580000[\extrasenglish, \pdfpageheight, \pdfpagewidth, \dateenglish, \captionsenglish]; 3 missing files[esint.sty, pdfcolmk.sty, pslatex.sty].
4210 2013-04-15 11:22:33 /1204/1204.5795 3030000[\ifthenelse, \isempty]; 1 missing file[xifthen.sty].
4211 2013-04-15 11:22:21 /1204/1204.5804 530000[\abtype, \abphrase]; 1 missing file[apreambl].
4212 2013-04-15 11:21:57 /1204/1204.5793 420000[\@end@institute].
4213 2013-04-15 11:21:52 /1204/1204.5790 020000[Align, \biboptions].
4214 2013-04-15 11:21:51 /1204/1204.5794 720000[\@end@institute]; 1 missing file[fix-cm.sty].
4215 2013-04-15 11:21:51 /1204/1204.5782 15180000[\fmfpen, {fmffile}, \fmfrightn, {fmfgraph*}, \fmfleftn, \fmf, \fmfleft, \fmfright].
4216 2013-04-15 11:21:36 /1204/1204.5767 8170000[\varbigtriangleup, \shortrightarrow, \shortuparrow, \varbigtriangledown]; 1 missing file[tabls.sty].
4217 2013-04-15 11:21:20 /1204/1204.5752 6370000[\slashed, \pdfoptionpdfminorversion, \geometry]; 2 missing files[fancyvrb.sty, esint.sty].
4218 2013-04-15 11:21:18 /1204/1204.5786 1630000[\captcont]; 2 missing files[endfloat.sty, captcont.sty].
4219 2013-04-15 11:21:18 /1204/1204.5721 314240000[\mathds, \articletitle, \copyrightowner, \volume, \DOI, \thechapter, \issue, \journal, \@currentID, {proof}, \authorname, \pubyear, \isbn]; 1 missing file[now.cls].
4220 2013-04-15 11:21:17 /1204/1204.5760 12100000[\arXiv, \square, \Bbb, \theoremstyle, \mathfrak, \keywords, \subjclass, \email, {proof}, \frak]; 1 missing file[arx.cls].
4221 2013-04-15 11:21:16 /1204/1204.5772 18660000[\ShortTitle, \mathbb, \email, \FullConference, \mathfrak, \speaker]; 1 missing file[PoS.cls].
4222 2013-04-15 11:21:12 /1204/1204.5781 2120000[\pra, \ocis, \apj, \opex, \prl, \theappendix, \josa, \address, \email, \ao, \josaa, \ol].
4223 2013-04-15 11:21:01 /1204/1204.5753 50810000[\theappendix].
4224 2013-04-15 11:20:18 /1204/1204.5761 840000[\subfloat, \unit]; 2 missing files[aas_macros.sty, soul.sty].
4225 2013-04-15 11:20:17 /1204/1204.5775 720000[\includegraphics]; 1 missing file[ol2.sty].
4226 2013-04-15 11:20:11 /1204/1204.5758 1160000[\extrasenglish, \pdfpageheight, \pdfpagewidth, \dateenglish, \captionsenglish]; 1 missing file[esint.sty].
4227 2013-04-15 11:20:09 /1204/1204.5755 230000[\fnref, \fntext]; 1 missing file[breakurl.sty].
4228 2013-04-15 11:19:37 /1204/1204.5762 740000[\includegraphics, \email, \acknowledgments, \keywords]; 1 missing file[JINST.cls].
4229 2013-04-15 11:19:27 /1204/1204.5751 030000[\extrasenglish, \dateenglish, \captionsenglish].
4230 2013-04-15 11:19:21 /1204/1204.5714 2120000[{comment}].
4231 2013-04-15 11:18:40 /1204/1204.5667 14210000[\href].
4232 2013-04-15 11:18:32 /1204/1204.5733 340000[\extrasenglish, \dateenglish, \captionsenglish]; 1 missing file[esint.sty].
4233 2013-04-15 11:18:20 /1204/1204.5731 1150000[\Circ, \preprinttitle, \noextrasenglish, \extrasamerican, \dateenglish, \captionsamerican, \extrasenglish, \makepreprinttitlepage, \dateamerican, \preprintnumber, \noextrasamerican, \captionsenglish, \institut]; 2 missing files[tu-preprint.sty, scrartcl.
4234 2013-04-15 11:18:06 /1204/1204.5720 4870000[Align, \xymatrix, \ar]; 1 missing file[xy.sty].
4235 2013-04-15 11:17:52 /1204/1204.5732 030000[\ocis, \address, \email].
4236 2013-04-15 11:17:13 /1204/1204.5724 4450000[\subref].
4237 2013-04-15 11:17:07 /1204/1204.5711 040000[\varLambda, \varOmega, \varPhi]; 1 missing file[apjfonts.sty].
4238 2013-04-15 11:17:06 /1204/1204.5697 220000[\na]; 1 missing file[apjfonts.sty].
4239 2013-04-15 11:16:54 /1204/1204.5673 100430000[\dbigcup, \dsum, \dint].
4240 2013-04-15 11:16:27 /1204/1204.5706 910000[{sidewaystable}].
4241 2013-04-15 11:16:15 /1204/1204.5704 090000[\NormalPunkt, \endPfad, \SPfad, \Pfad, \htmladdnormallink, \Einheit, \DuennPunkt, \endSPfad]; 1 missing file[pathlatex.sty].
4242 2013-04-15 11:16:08 /1204/1204.5681 38130000[Align, \xymatrix, \ar, \marginsize]; 9 missing files[xycurve.sty, xymatrix.sty, xyline.sty, xyarrow.sty, xycmtip.sty, xycolor.sty, xyrotate.sty, xyframe.sty, xygraph.sty].
4243 2013-04-15 11:16:05 /1204/1204.5663 54350000[{IEEEkeywords}, \IEEEpeerreviewmaketitle, \IEEEmembership, {proof}, \IEEEQED]; 1 missing file[IEEEtran.cls].
4244 2013-04-15 11:15:53 /1204/1204.5689 550000[\subfloat].
4245 2013-04-15 11:15:47 /1204/1204.5379 15670000[\unit, \diameter, \bigstrut, \cancel]; 1 missing file[ctable.sty].
4246 2013-04-15 11:15:31 /1204/1204.5680 1580000[\arraybackslash]; 1 missing file[datetime.sty].
4247 2013-04-15 11:15:27 /1204/1204.5696 290000[\editors, \affiliation, \keywords, \volume, \firstsection, \pagerange, \jname, \pubyear, \etal]; 1 missing file[iaus.cls].
4248 2013-04-15 11:15:24 /1204/1204.5678 64240000[\preprint, \keywords]; 1 missing file[jheppub.sty].
4249 2013-04-15 11:15:20 /1204/1204.5679 45100000[\pdfliteral, \pdfcatalog, \pdfstartlink, \delimiter, \pdfoutline, \pdfdest, \pdfendlink].
4250 2013-04-15 11:15:02 /1204/1204.5685 1620000[\psfrag]; 1 missing file[psfragx.sty].
4251 2013-04-15 11:14:41 /1204/1204.5624 6920000[\mathtoolsset]; 1 missing file[mathtools.sty].
4252 2013-04-15 11:14:23 /1204/1204.5671 980000[\Book, \pacs, \inst, \shorttitle, \Name, \institute, \REVIEW, \acknowledgments]; 1 missing file[epl2.cls].
4253 2013-04-15 11:14:08 /1204/1204.5664 1840000[\slashed]; 1 missing file[tensor.sty].
4254 2013-04-15 11:13:52 /1204/1204.5665 1280000[\sectionfont, \notag, \balance, \subsectionfont]; 4 missing files[lastpage.sty, mhchem.sty, balance.sty, secsty.sty].
4255 2013-04-15 11:13:46 /1204/1204.5653 4340000[\cent, \drawedge, \node, \gasset].
4256 2013-04-15 11:13:26 /1204/1204.5650 010000[\unit].
4257 2013-04-15 11:13:23 /1204/1204.5638 7950000[\PreprintJournalName, \PreprintCoverAbstract, \PreprintCoverPaperTitle, \PreprintIdNumber]; 1 missing file[preprintcover.sty].
4258 2013-04-15 11:13:13 /1204/1204.5652 740000[{keywords}, \IEEEauthorblockA, \IEEEauthorblockN, \IEEEmembership]; 1 missing file[IEEEtran.cls].
4259 2013-04-15 11:13:12 /1204/1204.5631 63170000[\UnaryInfC, \RightLabel, {prooftree}, \noLine, \BinaryInfC, \AxiomC]; 10 missing files[xycurve.sty, xymatrix.sty, xyline.sty, bussproofs.sty, xyarrow.sty, xycmtip.sty, xycolor.sty, xyrotate.sty, xyframe.sty, xygraph.sty].
4260 2013-04-15 11:12:55 /1204/1204.5655 010000[\theappendix].
4261 2013-04-15 11:12:29 /1204/1204.5633 5910000[\mathds].
4262 2013-04-15 11:12:27 /1204/1204.5644 040000[\extrasenglish, \dateenglish, \captionsenglish]; 1 missing file[esint.sty].
4263 2013-04-15 11:11:52 /1204/1204.5611 2140000[Align, \xymatrix, \rrbracket, \llbracket, \ar]; 9 missing files[xycurve.sty, xymatrix.sty, xyline.sty, xyarrow.sty, xycmtip.sty, xycolor.sty, xyrotate.sty, xyframe.sty, xygraph.sty].
4264 2013-04-15 11:11:45 /1204/1204.5632 0160000[\inst, \accepted, \Month, \publonline, \DOI, \titlerunning, \fnmsep, \authorrunning, \received, \Issue, \Yearsubmission, \institute, \Yearpublication, \Volume, \Pagespan, \acknowledgements].
4265 2013-04-15 11:11:41 /1204/1204.5623 12840000[\psplot, \theoremstyle, {proof}]; 3 missing files[mathtools.sty, yhmath%.sty, amsthm%.sty].
4266 2013-04-15 11:11:32 /1204/1204.5625 2710000[\geometry].
4267 2013-04-15 11:11:25 /1204/1204.5601 2410000[\cortext].
4268 2013-04-15 11:11:22 /1204/1204.5582 22820000[Align, \infer].
4269 2013-04-15 11:11:12 /1204/1204.5626 040000[\onelinecaptionsfalse, \setcaptionmargin, \captionstyle]; 1 missing file[mathtext.sty].
4270 2013-04-15 11:11:10 /1204/1204.5598 620000[\inst, {acknowledgement}].
4271 2013-04-15 11:11:08 /1204/1204.5615 3460000[\POS, {xy}, \xyoption, \cir, \ar]; 1 missing file[xy.sty].
4272 2013-04-15 11:10:48 /1204/1204.5581 5320000[\mathds]; 1 missing file[capt-of.sty].
4273 2013-04-15 11:10:45 /1204/1204.5609 020000[\fnref, \fntext].
4274 2013-04-15 11:10:33 /1204/1204.5600 020000[\al@[, \jcap].
4275 2013-04-15 11:10:17 /1204/1204.5508 34990000[\csL, \co, \VL, \Arity, \CONNalpha, \TCZ, \tuple, \VLalpha, \ACCEPT, \xvec, \Ptime, \Longla, \STCONN, \VTCZ, \bigO, \ACk, \VCalpha, \VNCk, \VC, \Sze, \PiIB, \FNCk, \Longra, \NC, \NL, \NUMONES, \ACZ, \Xvec, \VNLprimealpha, \FormVal, \numeral, \PATH, \newb
4276 2013-04-15 11:10:13 /1204/1204.5588 1720000[\FloatBarrier, \mathinner].
4277 2013-04-15 11:10:01 /1204/1204.5595 13910000[\ket].
4278 2013-04-15 11:09:45 /1204/1204.5537 66170000[\startlocaldefs, \affiliation, \thankstext, \runtitle, \address, \thanksref, \kwd, \snm, \thanksmark, \fnms, {keyword}, \endlocaldefs, {aug}, \runauthor, \printead, {frontmatter}, \ead]; 1 missing file[imsart.cls].
4279 2013-04-15 11:09:29 /1204/1204.5577 1050000[\subfloat, {AMS}, \midrule, \toprule, \bottomrule].
4280 2013-04-15 11:09:05 /1204/1204.5596 120000[\abst, \inst]; 1 missing file[apex.cls].
4281 2013-04-15 11:09:04 /1204/1204.5578 1130000[\Abstract, \refitem, {Titlepage}, \Author, \Received, \SetVol, \arcs, \FigCap, \nofiles, \SetPages, {references}, \Title, \Acknow]; 1 missing file[acta.cls].
4282 2013-04-15 11:08:42 /1204/1204.5585 12100000[\Book, \pacs, \inst, \institute, \acknowledgments, \includegraphics, \Publ, \Name, \Year, \REVIEW]; 1 missing file[epl2.cls].
4283 2013-04-15 11:08:42 /1204/1204.5584 210000[\underset].
4284 2013-04-15 11:08:40 /1204/1204.5586 450000[\ShortTitle, \email, \FullConference, \speaker]; 1 missing file[PoS.cls].
4285 2013-04-15 11:08:40 /1204/1204.5554 3690000[Align, \xyoption, \xymatrix, \ar]; 1 missing file[xy.sty].
4286 2013-04-15 11:08:27 /1204/1204.5567 130000[\layoutstyle, \classification]; 1 missing file[{aipcheck}].
4287 2013-04-15 11:08:11 /1204/1204.5561 6220000[\psset, \ttqqtt, \ttttqq, {pspicture*}, \parametricplot, \psdots, \psline, \rput, \newrgbcolor]; 1 missing file[pstricks-add.sty].
4288 2013-04-15 11:07:56 /1204/1204.5575 1130000[\tabnote, \surname, \citep, \institute, \runningtitle, {opening}, {article}, {acks}, \keywords, \sep, \runningauthor, \citet]; 2 missing files[spr-sola-addons.sty, solarphysics.cls].
4289 2013-04-15 11:07:53 /1204/1204.5576 030000[\extrasenglish, \dateenglish, \captionsenglish].
4290 2013-04-15 11:07:28 /1204/1204.5563 0330000[{tablenotes}, \endhead, \endfirsthead, {landscape}, \newgeometry, {threeparttable}, \endfoot, \tnote, Align, {longtabu}, \endlastfoot]; 3 missing files[pdflscape.sty, threeparttable.sty, tabu.sty].
4291 2013-04-15 11:07:07 /1204/1204.5564 1660000[{appendices}, \email, \affaddr, \alignauthor]; 2 missing files[multimedia.sty, default.sty].
4292 2013-04-15 11:06:26 /1204/1204.5552 0220000[\includegraphics, \comby, \catchline, {history}, {romanlist}, \revised, {itemlist}, \keywords, \received]; 1 missing file[ws.sty].
4293 2013-04-15 11:06:26 /1204/1204.5543 60100000[{example}, {definition}, {lemma}, {theorem}, {corollary}, {proof}, {proposition}]; 4 missing files[mytheorems.sty, xy.sty, eptcs.cls, breakurl.sty].
4294 2013-04-15 11:06:22 /1204/1204.5516 4730000[\bra, \braket, \ket].
4295 2013-04-15 11:06:14 /1204/1204.5536 5030000[{comment}, \geometry]; 1 missing file[type1cm.sty].
4296 2013-04-15 11:06:03 /1204/1204.5542 14140000[\email, \url, \institute]; 1 missing file[eptcs.cls].
4297 2013-04-15 11:05:51 /1204/1204.5531 20130000[Align, \xymatrix, \entrymodifiers, \ar]; 1 missing file[xy.sty].
4298 2013-04-15 11:05:49 /1204/1204.5545 1020000[\email, \institute]; 1 missing file[eptcs.cls].
4299 2013-04-15 11:05:14 /1204/1204.5505 242120000[{SCfigure}]; 1 missing file[sidecap.sty].
4300 2013-04-15 11:05:08 /1204/1204.5524 5030000[\fxuseenvlayout, \fxusetargetlayout, \FXRegisterAuthor].
4301 2013-04-15 11:05:04 /1204/1204.5532 210000[\theappendix].
4302 2013-04-15 11:04:54 /1204/1204.5535 9240000[\affil, \apj, \pasj, \apjl, \aap, \endfoot, \Accepted, \email, \arcsec, \endlastfoot, \KeyWords, \draft, \aj, {longtable}, \endhead, \Received, \mnras, Align, \apjs, \gtrsim, \FigureFile, \SetRunningHead]; 1 missing file[pasj00.cls].
4303 2013-04-15 11:04:50 /1204/1204.5520 120000[\theappendix]; 1 missing file[gensymb.sty].
4304 2013-04-15 11:04:31 /1204/1204.5522 110000[\verbatimtabinput].
4305 2013-04-15 11:04:05 /1204/1204.5509 450000[\coltocauthor, {papers}, \coltoctitle, \import]; 2 missing files[combine.cls, tocloft.sty].
4306 2013-04-15 11:04:05 /1204/1204.5488 3220000[\subfloat]; 1 missing file[subfloat.sty].
4307 2013-04-15 11:03:51 /1204/1204.5489 1150000[\EndFor, {algorithm*}, \Comment, \Else, \EndWhile, \ElsIf, \While, {algorithmic}, \For, \If, \State, \EndIf].
4308 2013-04-15 11:03:41 /1204/1204.5497 1570000[{acknowledgments}, \includegraphics, \ShortTitle, \mathbb, \email, \FullConference, \speaker]; 1 missing file[PoS.cls].
4309 2013-04-15 11:03:26 /1204/1204.5485 1820000[\theappendix]; 1 missing file[sidecap.sty].
4310 2013-04-15 11:03:18 /1204/1204.5493 610000[\diameter].
4311 2013-04-15 11:02:50 /1204/1204.5478 4420000[\theappendix, \url].
4312 2013-04-15 11:02:41 /1204/1204.5482 3250000[\affiliation, \emailAdd, \acknowledgments, \keywords]; 1 missing file[jcappub.sty].
4313 2013-04-15 11:02:27 /1204/1204.5477 930000[\mathtoolsset, \unit]; 1 missing file[mathtools.sty].
4314 2013-04-15 11:02:20 /1204/1204.5484 610000[\theappendix].
4315 2013-04-15 11:02:10 /1204/1204.5474 1510000[\theappendix].
4316 2013-04-15 11:02:04 /1204/1204.5483 420000[\braket, \ket].
4317 2013-04-15 11:01:42 /1204/1204.5468 440000[\email, \affiliation, \acknowledgement]; 2 missing files[achemso.cls, mhchem.sty].
4318 2013-04-15 11:01:35 /1204/1204.5463 4200000[\SetKwInOut, \Repeat, \For, \LinesNumbered, \Output, \tnotetext, \BlankLine, \tcc, \Input, \DontPrintSemicolon].
4319 2013-04-15 11:01:26 /1204/1204.5458 1190000[\datebritish, \extrasamerican, \captionsamerican, \extrasenglish, \coloneq, \extrasbritish, \dateamerican, \noextrasamerican, \preprinttitle, \Circ, \captionsbritish, \noextrasenglish, \dateenglish, \makepreprinttitlepage, \preprintnumber, \institut, \ca
4320 2013-04-15 11:01:24 /1204/1204.5462 740000[\ack, {theorem}, \institute]; 2 missing files[turing2012.cls, colordvi.sty].
4321 2013-04-15 11:00:45 /1204/1204.5454 710000[\cortext].
4322 2013-04-15 11:00:27 /1204/1204.5442 290000[\fnref, \tnoteref, \newproof, \fntext, {definition}, \tnotetext, \cortext, {proof}, \newdefinition].
4323 2013-04-15 11:00:23 /1204/1204.5441 2640000[Align, \xymatrix, \ar]; 1 missing file[xy.sty].
4324 2013-04-15 10:59:43 /1204/1204.5429 26110000[\affaddr, \numberofauthors, \terms, \alignauthor, \keywords, \proof, \email, \category, {psfrags}]; 3 missing files[psboxit.sty, colordvi.sty, sigcomm-alternate.cls].
4325 2013-04-15 10:59:21 /1204/1204.5425 37590000[{acknowledgments}, \preprint, \eqref, \affiliation, \tfrac, \note, \mathfrak, \includegraphics, \gtrsim, \overleftrightarrow, \text]; 1 missing file[jheppub.sty].
4326 2013-04-15 10:59:05 /1204/1204.5424 1050000[\ShortTitle, \email, \FullConference]; 1 missing file[PoS.cls].
4327 2013-04-15 10:58:54 /1204/1204.5421 1140000[{algorithm}, \EndFor, \Else, \EndWhile, \While, {algorithmic}, \For, \If, \State, \Return, \EndIf].
4328 2013-04-15 10:58:51 /1204/1204.5411 1710000[\geometry].
4329 2013-04-15 10:58:35 /1204/1204.5408 1130000[\apj, \inst, \aj, \institute, \apjl, \nat, \keywords, \mnras, \plotone, \volnopage, \titlerunning, \authorrunning, {acknowledgements}]; 1 missing file[raa.cls].
4330 2013-04-15 10:58:29 /1204/1204.5402 030000[\trnum]; 2 missing files[everypage.sty, trcover.sty].
4331 2013-04-15 10:58:25 /1204/1204.5403 200100000[\lesssim, \affiliation, \emailAdd, \keywords, \includegraphics, \arxivnumber, \notag, \text, \checkmark]; 1 missing file[jheppub.sty].
4332 2013-04-15 10:58:21 /1204/1204.5399 030000[\pdfpageheight, \pdfpagewidth, \setmarginsrb].
4333 2013-04-15 10:58:17 /1204/1204.5405 510000[\hexagon].
4334 2013-04-15 10:58:11 /1204/1204.5406 7240000[\fm, \setcaptionwidth, \ab, \degr, \selectlanguage, \aas, \onelinecaptionsfalse, \sun, \aj, \captionstyle, \includegraphics, \mnras, \apjs, \setcaptionmargin, \aaa, \farcm, \fdg].
4335 2013-04-15 10:57:28 /1204/1204.5394 24110000[\Abstract, \ArticleName, \ShortArticleName, \FirstPageHeading, \Address, \LastPageEnding, \Author, \AuthorNameForHeading]; 3 missing files[threeparttable.sty, slashbox.sty, xy.sty].
4336 2013-04-15 10:56:38 /1204/1204.5377 31540000[{System}]; 1 missing file[envmath.sty].
4337 2013-04-15 10:56:37 /1204/1204.5384 5450000[Align, \SelectTips, \xymatrix, \ar]; 1 missing file[xy.sty].
4338 2013-04-15 10:56:12 /1204/1204.5372 520000[\psfrag]; 1 missing file[ucs.sty].
4339 2013-04-15 10:56:03 /1204/1204.5380 0140000[\includegraphics, \apl, \josab, \josaa, \oc, \opex, \ol]; 1 missing file[ol2.sty].
4340 2013-04-15 10:55:53 /1204/1204.5386 040000[\afterpage]; 2 missing files[afterpage.sty, geompsfi-pdf.sty].
4341 2013-04-15 10:55:50 /1204/1204.5373 7120000[\conferenceinfo, \patchcmd, \affaddr, \numberofauthors, \@copyrightspace, \terms, \alignauthor, \keywords, \email, \category]; 2 missing files[etoolbox.sty, blindtext.sty].
4342 2013-04-15 10:55:28 /1204/1204.5350 1140000[\Circ, \preprinttitle, \noextrasenglish, \extrasamerican, \dateenglish, \captionsamerican, \extrasenglish, \makepreprinttitlepage, \dateamerican, \preprintnumber, \captionsenglish, \institut]; 2 missing files[tu-preprint.sty, scrartcl.cls].
4343 2013-04-15 10:55:03 /1204/1204.5349 020000[\includegraphics]; 1 missing file[ol2.sty].
4344 2013-04-15 10:54:52 /1204/1204.5341 164430000[\pt, \xspace, \cPqs, \TeV, \fbinv, \cPqu, \ttbar, \text, \RCS, \Pe, \mum, \unit, \PXXSG, \ET, \cmsinstskip, \cPqd, \hypersetup, \includegraphics, \PSq, \cmsAuthorMark, \cmsNoteHeader, \GeV, \PSg, \JPsi, \topcaption]; 1 missing file[cms-tdr.cls].
4345 2013-04-15 10:54:43 /1204/1204.5345 0180000[\square, \per, \meter, \angstrom, \centi, \watt, \liter, \milli, \ce, \a, \micro, \subfloat, \si, \minute]; 2 missing files[mhchem.sty, siunitx.sty].
4346 2013-04-15 10:54:26 /1204/1204.5340 310000[\sq].
4347 2013-04-15 10:54:14 /1204/1204.5343 130000[\midrule, \toprule, \bottomrule].
4348 2013-04-15 10:54:06 /1204/1204.5278 1210000[\curve].
4349 2013-04-15 10:54:00 /1204/1204.5307 12660000[\fnref, {rmk}, \subfloat, \newproof, \fntext, \newdefinition].
4350 2013-04-15 10:53:43 /1204/1204.5330 020000[\affil]; 1 missing file[authblk.sty].
4351 2013-04-15 10:53:41 /1204/1204.5291 149100000[\titlespacing, \titleformat].
4352 2013-04-15 10:53:39 /1204/1204.5332 030000[\extrasenglish, \dateenglish, \captionsenglish].
4353 2013-04-15 10:53:17 /1204/1204.5322 310000[\cellcolor].
4354 2013-04-15 10:52:58 /1204/1204.5306 2220000[\linenumbersep]; 1 missing file[vertbars.sty].
4355 2013-04-15 10:52:51 /1204/1204.5299 1320000[{CJK*}]; 1 missing file[CJK.sty].
4356 2013-04-15 10:52:48 /1204/1204.5302 010000[\icarus].
4357 2013-04-15 10:52:43 /1204/1204.5312 120000[\includegraphics]; 1 missing file[ol2.sty].
4358 2013-04-15 10:52:16 /1204/1204.5280 87520000[\RRresume, \titlehead, \URRocq, \RRtitle, \color, \makeRR, \RCParis, \RRprojets, \RRetitle, \thanksref, \RRNo, {exemple}, \RRauthor, {proposition}, \authorhead, \RRabstract, \RRdate, {definition}, \RRmotcle, \footref, {proof}, \RRkeyword]; 5 missing file
4359 2013-04-15 10:51:51 /1204/1204.5286 7040000[Align, \xymatrix, \ar]; 1 missing file[xy.sty].
4360 2013-04-15 10:51:47 /1204/1204.5220 13150000[\geometry].
4361 2013-04-15 10:51:42 /1204/1204.5281 2230000[\@slowromancap, {proof}]; 2 missing files[IEEEtran.cls, balance.sty].
4362 2013-04-15 10:51:28 /1204/1204.5252 14790000[{overpic}].
4363 2013-04-15 10:51:04 /1204/1204.5222 16460000[{rotate}].
4364 2013-04-15 10:50:59 /1204/1204.5239 7730000[\MeijerG, \Hypergeometric]; 1 missing file[cool.sty].
4365 2013-04-15 10:50:54 /1204/1204.5268 210000[\nicefrac].
4366 2013-04-15 10:50:21 /1204/1204.5265 1230000[\bra, \ket]; 1 missing file[hyphenat.sty].
4367 2013-04-15 10:50:13 /1204/1204.5262 3110000[\bra, \unit, \numprint, \dateenglish, \nicefrac, \extrasenglish, \geometry, \ket, \captionsenglish]; 2 missing files[numprint.sty, esint.sty].
4368 2013-04-15 10:50:07 /1204/1204.5250 3410000[\pdfminorversion].
4369 2013-04-15 10:49:46 /1204/1204.5244 68130000[Align, \xymatrix, \ar]; 10 missing files[xycurve.sty, xymatrix.sty, xyline.sty, bussproofs.sty, xyarrow.sty, xycmtip.sty, xycolor.sty, xyrotate.sty, xyframe.sty, xygraph.sty].
4370 2013-04-15 10:49:38 /1204/1204.5251 13600000[\nprounddigits, \npdecimalsign]; 1 missing file[numprint.sty].
4371 2013-04-15 10:49:31 /1204/1204.5243 3520000[\affil]; 1 missing file[authblk.sty].
4372 2013-04-15 10:49:28 /1204/1204.5253 460000[\IEEEauthorblockA, \IEEEauthorblockN, \IEEEaftertitletext, \IEEEoverridecommandlockouts, {IEEEproof}, \IEEEauthorrefmark]; 1 missing file[IEEEtran.cls].
4373 2013-04-15 10:49:27 /1204/1204.5246 6850000[Align, \xymatrix, \itStacks, \ar]; 1 missing file[xy.sty].
4374 2013-04-15 10:49:10 /1204/1204.5254 420000[\ack, \ead].
4375 2013-04-15 10:49:06 /1204/1204.5256 710000[\mathinner].
4376 2013-04-15 10:49:02 /1204/1204.5236 210000[\mathds].
4377 2013-04-15 10:48:54 /1204/1204.5240 340000[\ocis, \address, \email, {abstract*}].
4378 2013-04-15 10:48:51 /1204/1204.5229 4190000[\lElseIf, \lFor, \SetKw, {algorithm}, \SetKwFor, \Repeat, \For, \Begin, \Loop, \Return, \psbrace, \lIf, \DontPrintSemicolon]; 2 missing files[pstricks-add.sty, framed.sty].
4379 2013-04-15 10:48:41 /1204/1204.5188 410000[\theappendix].
4380 2013-04-15 10:48:07 /1204/1204.5208 2150000[\subref, \mathaccentV]; 1 missing file[gensymb.sty].
4381 2013-04-15 10:47:34 /1204/1204.5209 23100000[\abs, \bra, \tr, \pr, \braket, \Tr, \identity, \Abs, \ket]; 1 missing file[tgtermes.sty].
4382 2013-04-15 10:47:30 /1204/1204.5216 410000[\DJ].
4383 2013-04-15 10:47:30 /1204/1204.5215 210000[\DJ].
4384 2013-04-15 10:47:30 /1204/1204.5212 220000[Align, \biboptions].
4385 2013-04-15 10:47:20 /1204/1204.5210 1490000[\includegraphics, \email, \affiliation, \alsoaffiliation, {suppinfo}, {acknowledgement}, \keywords]; 2 missing files[achemso.cls, mhchem.sty].
4386 2013-04-15 10:47:20 /1204/1204.5123 18210000[\nicefrac].
4387 2013-04-15 10:47:16 /1204/1204.5204 4710000[\bigstrut].
4388 2013-04-15 10:47:10 /1204/1204.5187 530000[{sidewaystable}, \icarus].
4389 2013-04-15 10:46:48 /1204/1204.5202 970000[\toccontinuoustrue, \preprint, \affiliation, \texorpdfstring, \emailAdd, \keywords]; 1 missing file[jheppub.sty].
4390 2013-04-15 10:46:43 /1204/1204.5164 460000[\theappendix].
4391 2013-04-15 10:46:22 /1204/1204.5206 030000[\extrasenglish, \dateenglish, \captionsenglish].
4392 2013-04-15 10:46:12 /1204/1204.5185 3110000[\theappendix].
4393 2013-04-15 10:46:10 /1204/1204.5180 010000[\subfloat].
4394 2013-04-15 10:46:04 /1204/1204.5181 4220000[\theappendix]; 1 missing file[deluxetable.sty].
4395 2013-04-15 10:45:40 /1204/1204.5167 2170000[\dgARROWPARTS, \node, \arrow, \dgARROWLENGTH, {diagram}].
4396 2013-04-15 10:44:54 /1204/1204.5142 11050000[\nicefrac, \mathds, \color, \midtilde]; 1 missing file[marvosym.sty].
4397 2013-04-15 10:44:37 /1204/1204.5117 39100000[\pmglyph]; 3 missing files[pst-text.sty, hieroglf.sty, pst-3d.sty].
4398 2013-04-15 10:43:49 /1204/1204.5152 2140000[Align, \xymatrix, \ar]; 1 missing file[xy.sty].
4399 2013-04-15 10:43:47 /1204/1204.5156 2590000[{definition}, {lemma}, \iinfer, {theorem}, \Infer, \infer, {proof}]; 2 missing files[Common/prooftree.sty, Common/theorems.sty].
4400 2013-04-15 10:43:47 /1204/1204.5140 3630000[{keywords}]; 1 missing file[IEEEtran.cls].
<<< >>>

[0] [200] [400] [600] [800] [1000] [1200] [1400] [1600] [1800] [2000] [2200] [2400] [2600] [2800] [3000] [3200] [3400] [3600] [3800] [4000] [4200] [4400] [4600] [4800] [5000] [5200] [5400] [5600] [5800] [6000] [6200] [6400] [6600] [6800] [7000] [7200] [7400] [7600] [7800] [8000] [8200] [8400] [8600] [8800] [9000] [9200] [9400] [9600] [9800] [10000] [10200] [10400] [10600] [10800] [11000] [11200] [11400] [11600] [11800] [12000] [12200] [12400] [12600] [12800] [13000] [13200] [13400] [13600] [13800] [14000] [14200] [14400] [14600] [14800] [15000] [15200] [15400] [15600] [15800] [16000] [16200] [16400] [16600] [16800] [17000] [17200] [17400] [17600] [17800] [18000] [18200] [18400] [18600] [18800] [19000] [19200] [19400] [19600] [19800] [20000] [20200] [20400] [20600] [20800] [21000] [21200] [21400] [21600] [21800] [22000] [22200] [22400] [22600] [22800] [23000] [23200] [23400] [23600] [23800] [24000] [24200] [24400] [24600] [24800] [25000] [25200] [25400] [25600] [25800] [26000] [26200] [26400] [26600] [26800] [27000] [27200] [27400] [27600] [27800] [28000] [28200] [28400] [28600] [28800] [29000] [29200] [29400] [29600] [29800] [30000] [30200] [30400] [30600] [30800] [31000] [31200] [31400] [31600] [31800] [32000] [32200] [32400] [32600] [32800] [33000] [33200] [33400] [33600] [33800] [34000] [34200] [34400] [34600] [34800] [35000] [35200] [35400] [35600] [35800] [36000] [36200] [36400] [36600] [36800] [37000] [37200] [37400] [37600] [37800] [38000] [38200] [38400] [38600] [38800] [39000] [39200] [39400] [39600] [39800] [40000] [40200] [40400] [40600] [40800] [41000] [41200] [41400] [41600] [41800] [42000] [42200] [42400] [42600] [42800] [43000] [43200] [43400] [43600] [43800] [44000] [44200] [44400] [44600] [44800] [45000] [45200] [45400] [45600] [45800] [46000] [46200] [46400] [46600] [46800] [47000] [47200] [47400] [47600] [47800] [48000] [48200] [48400] [48600] [48800] [49000] [49200] [49400] [49600] [49800] [50000] [50200] [50400] [50600] [50800] [51000] [51200] [51400] [51600] [51800] [52000] [52200] [52400] [52600] [52800] [53000] [53200] [53400] [53600] [53800] [54000] [54200] [54400] [54600] [54800] [55000] [55200] [55400] [55600] [55800] [56000] [56200] [56400] [56600] [56800] [57000] [57200] [57400] [57600] [57800] [58000] [58200] [58400] [58600] [58800] [59000] [59200] [59400] [59600] [59800] [60000] [60200] [60400] [60600] [60800] [61000] [61200] [61400] [61600] [61800] [62000] [62200] [62400] [62600] [62800] [63000] [63200] [63400] [63600] [63800] [64000] [64200] [64400] [64600] [64800] [65000] [65200] [65400] [65600] [65800] [66000] [66200] [66400] [66600] [66800] [67000] [67200] [67400] [67600] [67800] [68000] [68200] [68400] [68600] [68800] [69000] [69200] [69400] [69600] [69800] [70000] [70200] [70400] [70600] [70800] [71000] [71200] [71400] [71600] [71800] [72000] [72200] [72400] [72600] [72800] [73000] [73200] [73400] [73600] [73800] [74000] [74200] [74400] [74600] [74800] [75000] [75200] [75400] [75600] [75800] [76000] [76200] [76400] [76600] [76800] [77000] [77200] [77400] [77600] [77800] [78000] [78200] [78400] [78600] [78800] [79000] [79200] [79400] [79600] [79800] [80000] [80200] [80400] [80600] [80800] [81000] [81200] [81400] [81600] [81800] [82000] [82200] [82400] [82600] [82800] [83000] [83200] [83400] [83600] [83800] [84000] [84200] [84400] [84600] [84800] [85000] [85200] [85400] [85600] [85800] [86000] [86200] [86400] [86600] [86800] [87000] [87200] [87400] [87600] [87800] [88000] [88200] [88400] [88600] [88800] [89000] [89200] [89400] [89600] [89800] [90000] [90200] [90400] [90600] [90800] [91000] [91200] [91400] [91600] [91800] [92000] [92200] [92400] [92600] [92800] [93000] [93200] [93400] [93600] [93800] [94000] [94200] [94400] [94600] [94800] [95000] [95200] [95400] [95600] [95800] [96000] [96200] [96400] [96600] [96800] [97000] [97200] [97400] [97600] [97800] [98000] [98200] [98400] [98600] [98800] [99000] [99200] [99400] [99600] [99800] [100000] [100200] [100400] [100600] [100800] [101000] [101200] [101400] [101600] [101800] [102000] [102200] [102400] [102600] [102800] [103000] [103200] [103400] [103600] [103800] [104000] [104200] [104400] [104600] [104800] [105000] [105200] [105400] [105600] [105800] [106000] [106200] [106400] [106600] [106800] [107000] [107200] [107400] [107600] [107800] [108000] [108200] [108400] [108600] [108800] [109000] [109200] [109400] [109600] [109800] [110000] [110200] [110400] [110600] [110800] [111000] [111200] [111400] [111600] [111800] [112000] [112200] [112400] [112600] [112800] [113000] [113200] [113400] [113600] [113800] [114000] [114200] [114400] [114600] [114800] [115000] [115200] [115400] [115600] [115800] [116000] [116200] [116400] [116600] [116800] [117000] [117200] [117400] [117600] [117800] [118000] [118200] [118400] [118600] [118800] [119000] [119200] [119400] [119600] [119800] [120000] [120200] [120400] [120600] [120800] [121000] [121200] [121400] [121600] [121800] [122000] [122200] [122400] [122600] [122800] [123000] [123200] [123400] [123600] [123800] [124000] [124200] [124400] [124600] [124800] [125000] [125200] [125400] [125600] [125800] [126000] [126200] [126400] [126600] [126800] [127000] [127200] [127400] [127600] [127800] [128000] [128200] [128400] [128600] [128800] [129000] [129200] [129400] [129600] [129800] [130000] [130200] [130400] [130600] [130800] [131000] [131200] [131400] [131600] [131800] [132000] [132200] [132400] [132600] [132800] [133000] [133200] [133400] [133600] [133800] [134000] [134200] [134400] [134600] [134800] [135000] [135200] [135400] [135600] [135800] [136000] [136200] [136400] [136600] [136800] [137000] [137200] [137400] [137600] [137800] [138000] [138200] [138400] [138600] [138800] [139000] [139200] [139400] [139600] [139800] [140000] [140200] [140400] [140600] [140800] [141000] [141200] [141400] [141600] [141800] [142000] [142200] [142400] [142600] [142800] [143000] [143200] [143400] [143600] [143800] [144000] [144200] [144400] [144600] [144800] [145000] [145200] [145400] [145600] [145800] [146000] [146200] [146400] [146600] [146800] [147000] [147200] [147400] [147600] [147800] [148000] [148200] [148400] [148600] [148800] [149000] [149200] [149400] [149600] [149800] [150000] [150200] [150400] [150600] [150800] [151000] [151200] [151400] [151600] [151800] [152000] [152200] [152400] [152600] [152800] [153000] [153200] [153400] [153600] [153800] [154000] [154200] [154400] [154600] [154800] [155000] [155200] [155400] [155600] [155800] [156000] [156200] [156400] [156600] [156800] [157000] [157200] [157400] [157600] [157800] [158000] [158200] [158400] [158600] [158800] [159000] [159200] [159400] [159600] [159800] [160000] [160200] [160400] [160600] [160800] [161000] [161200] [161400] [161600] [161800] [162000] [162200] [162400] [162600] [162800] [163000] [163200] [163400] [163600] [163800] [164000] [164200] [164400] [164600]
 
  The service has been written by
Heinrich Stamerjohanns